Airports

 

 

Airport Name Latest METAR Visual Conditions
Atlantic City Int. (ACY) N/A N/A
Baltimore International Airport (BWI) KBWI 211754Z 23006KT 10SM SCT180 BKN250 08/M06 A2971 RMK AO2 SLP061 T00781061 10078 21022 58042 VFR
Washington National Airport (DCA) KDCA 211752Z 16008KT 10SM FEW230 09/M02 A2973 RMK AO2 SLP067 T00941022 10094 20000 58043 VFR
Dulles International Airport (IAD) KIAD 211752Z 20008KT 10SM FEW044 SCT220 09/M05 A2971 RMK AO2 SLP063 T00941050 10094 21028 58042 VFR
Norfolk International Airport (ORF) KORF 211751Z 23009KT 10SM OVC065 10/M02 A2978 RMK AO2 SLP082 T01001017 10100 20022 56048 VFR
Raleigh International Airport (RDU) KRDU 211751Z 23004KT 10SM BKN085 BKN100 BKN150 BKN250 11/M02 A2982 RMK AO2 PRESFR SLP097 60001 T01061017 10111 20039 58034 VFR
Richmond International Airport (RIC) KRIC 211754Z 24012KT 10SM FEW100 12/M01 A2974 RMK AO2 SLP077 T01221011 10128 21006 58045 VFR
Roanoke Regional Airport (ROA) KROA 211754Z 29012KT 10SM SCT036 09/00 A2979 RMK AO2 SLP092 60000 T00940000 10100 20044 58027 VFR